Time;durP1;ratioP1;P1;durP2;ratioP2;P2;SDS_P1;SDS_P2;PMS_P1;PMS_P2;Temp;Humidity;BMP_temperature;BMP_pressure;BME280_temperature;BME280_humidity;BME280_pressure;Samples;Min_cycle;Max_cycle;Signal;HPM_P1;HPM_P2
2021/12/28 00:02:20;;;;;;;5.53;1.88;;;;;;;;;;5056640;28;20021;-72
2021/12/28 00:04:46;;;;;;;4.75;1.85;;;;;;;;;;5057129;28;20017;-72
2021/12/28 00:07:11;;;;;;;8.10;2.10;;;;;;;;;;5056887;28;20013;-72
2021/12/28 00:09:37;;;;;;;5.82;1.55;;;;;;;;;;5059716;28;20128;-71
2021/12/28 00:12:02;;;;;;;4.28;2.15;;;;;;;;;;5060821;28;20081;-71
2021/12/28 00:14:35;;;;;;;4.47;2.28;;;;;;;;;;5043460;28;20021;-72
2021/12/28 00:19:45;;;;;;;9.48;2.25;;;;;;;;;;5060629;28;20039;-72
2021/12/28 00:22:10;;;;;;;5.45;2.15;;;;;;;;;;5060770;28;20025;-72
2021/12/28 00:24:36;;;;;;;6.65;2.65;;;;;;;;;;5060467;28;20025;-72
2021/12/28 00:27:03;;;;;;;4.43;2.00;;;;;;;;;;5042658;28;20077;-71
2021/12/28 00:29:29;;;;;;;4.55;2.25;;;;;;;;;;5060205;28;20081;-72
2021/12/28 00:31:54;;;;;;;6.25;2.95;;;;;;;;;;5059724;28;20017;-71
2021/12/28 00:34:20;;;;;;;7.93;2.50;;;;;;;;;;5060276;28;20059;-72
2021/12/28 00:36:46;;;;;;;5.57;2.20;;;;;;;;;;5059852;28;20013;-71
2021/12/28 00:39:11;;;;;;;6.18;2.92;;;;;;;;;;5042847;28;20014;-72
2021/12/28 00:41:37;;;;;;;10.90;2.40;;;;;;;;;;5060057;28;20044;-72
2021/12/28 00:44:02;;;;;;;9.63;2.85;;;;;;;;;;5060351;28;20018;-72
2021/12/28 00:46:28;;;;;;;7.82;2.72;;;;;;;;;;5042721;28;20006;-72
2021/12/28 00:48:54;;;;;;;9.68;2.40;;;;;;;;;;5060235;28;20068;-71
2021/12/28 00:51:20;;;;;;;7.88;2.65;;;;;;;;;;5059683;28;20021;-72
2021/12/28 00:53:45;;;;;;;6.13;2.17;;;;;;;;;;5042574;28;20101;-72
2021/12/28 00:56:11;;;;;;;6.68;2.35;;;;;;;;;;5042949;28;20009;-72
2021/12/28 00:58:37;;;;;;;4.63;2.03;;;;;;;;;;5058756;28;20005;-72
2021/12/28 01:01:03;;;;;;;11.20;2.78;;;;;;;;;;5059582;28;20275;-72
2021/12/28 01:03:29;;;;;;;4.82;1.83;;;;;;;;;;5059677;28;20032;-71
2021/12/28 01:05:55;;;;;;;5.25;1.80;;;;;;;;;;5059338;28;20022;-72
2021/12/28 01:08:20;;;;;;;4.82;1.92;;;;;;;;;;5041695;28;20017;-71
2021/12/28 01:10:50;;;;;;;6.78;2.45;;;;;;;;;;5042164;28;20029;-71
2021/12/28 01:13:16;;;;;;;3.78;1.75;;;;;;;;;;5059807;28;20036;-71
2021/12/28 01:15:43;;;;;;;6.28;1.98;;;;;;;;;;5059843;28;20073;-71
2021/12/28 01:18:09;;;;;;;6.18;2.97;;;;;;;;;;5042376;28;20048;-72
2021/12/28 01:20:34;;;;;;;5.35;2.13;;;;;;;;;;5058415;28;20029;-71
2021/12/28 01:23:00;;;;;;;5.85;2.10;;;;;;;;;;5042391;28;20014;-72
2021/12/28 01:25:26;;;;;;;4.45;1.58;;;;;;;;;;5042392;28;20017;-71
2021/12/28 01:27:52;;;;;;;5.95;2.20;;;;;;;;;;5059595;28;20028;-72
2021/12/28 01:30:20;;;;;;;5.32;1.90;;;;;;;;;;5059357;28;20021;-72
2021/12/28 01:32:46;;;;;;;4.47;1.92;;;;;;;;;;5059351;28;20040;-72
2021/12/28 01:35:13;;;;;;;5.82;2.40;;;;;;;;;;5058986;28;20033;-72
2021/12/28 01:37:39;;;;;;;7.15;2.75;;;;;;;;;;5058872;28;20036;-72
2021/12/28 01:40:07;;;;;;;7.45;2.70;;;;;;;;;;5058766;28;20082;-71
2021/12/28 01:42:32;;;;;;;4.30;2.08;;;;;;;;;;5041307;28;20002;-71
2021/12/28 01:44:58;;;;;;;6.82;2.28;;;;;;;;;;5041781;28;20082;-71
2021/12/28 01:47:23;;;;;;;6.68;2.67;;;;;;;;;;5059348;28;20025;-72
2021/12/28 01:49:49;;;;;;;8.23;3.15;;;;;;;;;;5058981;28;20036;-71
2021/12/28 01:52:14;;;;;;;10.00;3.05;;;;;;;;;;5058435;28;20040;-72
2021/12/28 01:54:40;;;;;;;4.38;2.45;;;;;;;;;;5058469;28;20013;-71
2021/12/28 01:57:05;;;;;;;8.57;3.03;;;;;;;;;;5058047;28;20036;-71
2021/12/28 01:59:31;;;;;;;7.13;2.83;;;;;;;;;;5041607;28;20040;-72
2021/12/28 02:01:56;;;;;;;10.52;2.65;;;;;;;;;;5057991;28;20012;-71
2021/12/28 02:04:27;;;;;;;6.60;2.35;;;;;;;;;;5058626;28;20028;-71
2021/12/28 02:06:55;;;;;;;7.75;2.63;;;;;;;;;;5058532;28;20005;-72
2021/12/28 02:09:20;;;;;;;9.25;2.78;;;;;;;;;;5041247;28;20060;-71
2021/12/28 02:11:46;;;;;;;7.10;2.67;;;;;;;;;;5057871;28;20009;-71
2021/12/28 02:14:12;;;;;;;9.18;3.33;;;;;;;;;;5058519;28;20014;-72
2021/12/28 02:16:40;;;;;;;6.05;2.60;;;;;;;;;;5058450;28;20009;-71
2021/12/28 02:19:07;;;;;;;4.90;2.08;;;;;;;;;;5041225;28;20016;-71
2021/12/28 02:21:33;;;;;;;5.70;2.22;;;;;;;;;;5041183;28;20036;-72
2021/12/28 02:23:59;;;;;;;10.02;3.00;;;;;;;;;;5041065;28;20001;-71
2021/12/28 02:26:25;;;;;;;9.95;3.22;;;;;;;;;;5041289;28;20006;-72
2021/12/28 02:28:50;;;;;;;5.63;2.33;;;;;;;;;;5041147;28;20081;-72
2021/12/28 02:31:16;;;;;;;12.32;3.15;;;;;;;;;;5041040;28;20025;-71
2021/12/28 02:33:41;;;;;;;8.70;2.97;;;;;;;;;;5040422;28;20036;-71
2021/12/28 02:36:07;;;;;;;6.95;2.67;;;;;;;;;;5040438;28;20002;-71
2021/12/28 02:38:34;;;;;;;7.05;2.58;;;;;;;;;;5058311;28;20032;-71
2021/12/28 02:41:01;;;;;;;5.07;2.38;;;;;;;;;;5058233;28;20083;-71
2021/12/28 02:43:26;;;;;;;6.15;2.38;;;;;;;;;;5058234;28;20006;-71
2021/12/28 02:45:57;;;;;;;7.57;3.28;;;;;;;;;;5057986;28;20016;-72
2021/12/28 02:48:23;;;;;;;7.82;2.83;;;;;;;;;;5057907;28;20024;-71
2021/12/28 02:50:58;;;;;;;4.30;1.67;;;;;;;;;;5057654;28;20009;-72
2021/12/28 02:53:24;;;;;;;7.70;2.45;;;;;;;;;;5057696;28;20018;-72
2021/12/28 02:55:51;;;;;;;5.32;2.42;;;;;;;;;;5057559;28;20014;-71
2021/12/28 02:58:31;;;;;;;7.30;2.83;;;;;;;;;;5040317;28;20025;-71
2021/12/28 03:01:02;;;;;;;8.23;2.30;;;;;;;;;;5057275;28;20013;-71
2021/12/28 03:03:30;;;;;;;9.02;2.97;;;;;;;;;;5057526;28;20028;-71
2021/12/28 03:05:58;;;;;;;4.95;1.80;;;;;;;;;;5057798;28;20013;-71
2021/12/28 03:08:25;;;;;;;4.85;1.92;;;;;;;;;;5040219;28;20024;-72
2021/12/28 03:10:52;;;;;;;6.00;2.30;;;;;;;;;;5039179;28;20016;-72
2021/12/28 03:13:21;;;;;;;10.68;2.72;;;;;;;;;;5056864;28;20061;-71
2021/12/28 03:15:46;;;;;;;5.68;2.47;;;;;;;;;;5057599;28;20016;-72
2021/12/28 03:18:12;;;;;;;6.57;2.72;;;;;;;;;;5057671;28;20021;-72
2021/12/28 03:20:37;;;;;;;7.18;2.17;;;;;;;;;;5057264;28;20017;-71
2021/12/28 03:23:03;;;;;;;4.57;1.95;;;;;;;;;;5057699;28;20017;-72
2021/12/28 03:25:30;;;;;;;5.38;2.20;;;;;;;;;;5057441;28;20052;-71
2021/12/28 03:27:55;;;;;;;3.88;1.90;;;;;;;;;;5040390;28;20026;-72
2021/12/28 03:30:21;;;;;;;6.13;2.25;;;;;;;;;;5040304;28;20021;-71
2021/12/28 03:32:46;;;;;;;9.10;2.33;;;;;;;;;;5057515;28;20036;-72
2021/12/28 03:35:14;;;;;;;6.32;2.42;;;;;;;;;;5057746;28;20036;-72
2021/12/28 03:37:39;;;;;;;8.70;2.50;;;;;;;;;;5057556;28;20018;-71
2021/12/28 03:40:08;;;;;;;6.88;2.50;;;;;;;;;;5040593;28;20021;-71
2021/12/28 03:42:34;;;;;;;5.68;2.42;;;;;;;;;;5039829;28;20096;-72
2021/12/28 03:45:00;;;;;;;8.25;2.65;;;;;;;;;;5043231;28;20022;-71
2021/12/28 03:47:25;;;;;;;4.97;2.08;;;;;;;;;;5044088;28;20028;-72
2021/12/28 03:49:51;;;;;;;6.78;2.33;;;;;;;;;;5060958;28;20065;-72
2021/12/28 03:52:16;;;;;;;10.38;3.13;;;;;;;;;;5060443;28;20043;-71
2021/12/28 03:54:42;;;;;;;6.60;2.80;;;;;;;;;;5061062;28;20010;-72
2021/12/28 03:57:07;;;;;;;6.00;2.83;;;;;;;;;;5043696;28;20022;-71
2021/12/28 03:59:32;;;;;;;4.38;1.80;;;;;;;;;;5060842;28;20010;-71
2021/12/28 04:01:58;;;;;;;6.10;2.33;;;;;;;;;;5060581;28;20005;-71
2021/12/28 04:04:23;;;;;;;10.18;2.78;;;;;;;;;;5061196;28;20067;-71
2021/12/28 04:06:49;;;;;;;6.63;2.42;;;;;;;;;;5061033;28;20024;-71
2021/12/28 04:09:21;;;;;;;12.23;2.55;;;;;;;;;;5060769;28;20013;-71
2021/12/28 04:11:47;;;;;;;11.20;3.03;;;;;;;;;;5044011;28;20032;-72
2021/12/28 04:14:12;;;;;;;5.78;2.63;;;;;;;;;;5061010;28;20014;-72
2021/12/28 04:16:38;;;;;;;8.40;2.80;;;;;;;;;;5060190;28;20009;-71
2021/12/28 04:19:04;;;;;;;8.32;2.88;;;;;;;;;;5043496;28;20085;-71
2021/12/28 04:21:30;;;;;;;12.98;3.63;;;;;;;;;;5060960;28;20021;-72
2021/12/28 04:23:55;;;;;;;6.88;2.85;;;;;;;;;;5043468;28;20036;-71
2021/12/28 04:26:22;;;;;;;6.22;2.67;;;;;;;;;;5060876;28;20013;-72
2021/12/28 04:28:47;;;;;;;6.22;2.38;;;;;;;;;;5060540;28;20010;-72
2021/12/28 04:31:13;;;;;;;6.05;2.90;;;;;;;;;;5043289;28;20040;-72
2021/12/28 04:33:39;;;;;;;7.45;2.28;;;;;;;;;;5060444;28;20021;-71
2021/12/28 04:36:13;;;;;;;5.60;2.08;;;;;;;;;;5060751;28;20012;-72
2021/12/28 04:38:41;;;;;;;6.60;1.98;;;;;;;;;;5060593;28;20032;-71
2021/12/28 04:41:09;;;;;;;5.55;2.35;;;;;;;;;;5043203;28;20069;-72
2021/12/28 04:43:35;;;;;;;9.23;3.40;;;;;;;;;;5042756;28;20064;-72
2021/12/28 04:46:00;;;;;;;6.97;2.80;;;;;;;;;;5060486;28;20001;-72
2021/12/28 04:48:26;;;;;;;8.02;2.90;;;;;;;;;;5060444;28;20013;-72
2021/12/28 04:50:52;;;;;;;6.03;2.38;;;;;;;;;;5060018;28;20068;-72
2021/12/28 04:53:17;;;;;;;9.88;2.97;;;;;;;;;;5059847;28;20059;-72
2021/12/28 04:55:46;;;;;;;7.15;2.75;;;;;;;;;;5059716;28;20013;-72
2021/12/28 04:58:12;;;;;;;7.78;2.83;;;;;;;;;;5059358;28;20044;-72
2021/12/28 05:00:39;;;;;;;7.20;2.42;;;;;;;;;;5042436;28;20010;-71
2021/12/28 05:03:05;;;;;;;7.80;3.28;;;;;;;;;;5059771;28;20072;-71
2021/12/28 05:05:31;;;;;;;7.30;2.63;;;;;;;;;;5059557;28;20018;-71
2021/12/28 05:07:56;;;;;;;7.78;2.83;;;;;;;;;;5059907;28;20029;-72
2021/12/28 05:10:22;;;;;;;7.32;2.30;;;;;;;;;;5042466;28;20005;-72
2021/12/28 05:12:49;;;;;;;8.75;2.90;;;;;;;;;;5059730;28;20028;-72
2021/12/28 05:15:16;;;;;;;5.72;2.20;;;;;;;;;;5059559;28;20036;-72
2021/12/28 05:17:41;;;;;;;10.13;2.40;;;;;;;;;;5059517;28;20013;-71
2021/12/28 05:20:07;;;;;;;6.68;2.63;;;;;;;;;;5059916;28;20033;-72
2021/12/28 05:22:33;;;;;;;5.25;2.10;;;;;;;;;;5059543;28;20092;-72
2021/12/28 05:24:58;;;;;;;6.80;2.58;;;;;;;;;;5059075;28;20036;-71
2021/12/28 05:27:23;;;;;;;5.95;2.25;;;;;;;;;;5042116;28;20029;-71
2021/12/28 05:29:49;;;;;;;7.65;2.30;;;;;;;;;;5058944;28;20028;-71
2021/12/28 05:32:15;;;;;;;2.65;1.38;;;;;;;;;;5041955;28;20017;-71
2021/12/28 05:34:41;;;;;;;5.85;2.30;;;;;;;;;;5059080;28;20025;-72
2021/12/28 05:37:07;;;;;;;6.00;2.55;;;;;;;;;;5059060;28;20022;-71
2021/12/28 05:39:32;;;;;;;4.90;2.10;;;;;;;;;;5059377;28;20009;-72
2021/12/28 05:41:59;;;;;;;7.05;2.65;;;;;;;;;;5058988;28;20040;-72
2021/12/28 05:44:24;;;;;;;8.77;3.15;;;;;;;;;;5041909;28;20080;-72
2021/12/28 05:46:50;;;;;;;6.63;2.40;;;;;;;;;;5058621;28;20033;-70
2021/12/28 05:49:16;;;;;;;7.20;2.90;;;;;;;;;;5058749;28;20036;-71
2021/12/28 05:51:45;;;;;;;7.70;2.70;;;;;;;;;;5059128;28;20040;-71
2021/12/28 05:54:12;;;;;;;7.38;2.30;;;;;;;;;;5058695;28;20018;-71
2021/12/28 05:56:37;;;;;;;7.30;2.72;;;;;;;;;;5059156;28;20001;-71
2021/12/28 05:59:03;;;;;;;8.77;2.70;;;;;;;;;;5041361;28;20052;-71
2021/12/28 06:01:28;;;;;;;7.32;2.72;;;;;;;;;;5058795;28;20056;-71
2021/12/28 06:03:54;;;;;;;8.77;2.90;;;;;;;;;;5058136;28;20017;-71
2021/12/28 06:06:19;;;;;;;6.25;2.40;;;;;;;;;;5058301;28;20029;-71
2021/12/28 06:08:45;;;;;;;5.53;2.20;;;;;;;;;;5041296;28;20010;-72
2021/12/28 06:11:13;;;;;;;3.72;1.70;;;;;;;;;;5057817;28;20013;-72
2021/12/28 06:13:40;;;;;;;7.95;2.88;;;;;;;;;;5041187;28;20024;-72
2021/12/28 06:16:07;;;;;;;7.97;2.78;;;;;;;;;;5058155;28;20028;-72
2021/12/28 06:18:32;;;;;;;7.35;2.78;;;;;;;;;;5058550;28;20086;-71
2021/12/28 06:20:57;;;;;;;8.15;3.05;;;;;;;;;;5058703;28;20006;-72
2021/12/28 06:23:23;;;;;;;7.93;3.35;;;;;;;;;;5041101;28;20017;-72
2021/12/28 06:25:48;;;;;;;8.82;2.67;;;;;;;;;;5057879;28;20021;-72
2021/12/28 06:28:14;;;;;;;8.50;2.88;;;;;;;;;;5057723;28;20033;-72
2021/12/28 06:30:39;;;;;;;6.65;2.60;;;;;;;;;;5057912;28;20096;-72
2021/12/28 06:33:05;;;;;;;5.07;2.20;;;;;;;;;;5040614;28;20093;-71
2021/12/28 06:35:30;;;;;;;8.20;2.83;;;;;;;;;;5057663;28;20081;-72
2021/12/28 06:37:56;;;;;;;8.23;2.80;;;;;;;;;;5057851;28;20043;-72
2021/12/28 06:40:21;;;;;;;8.30;2.60;;;;;;;;;;5057870;28;20009;-72
2021/12/28 06:42:47;;;;;;;4.53;2.28;;;;;;;;;;5040874;28;20017;-72
2021/12/28 06:45:12;;;;;;;6.15;2.42;;;;;;;;;;5057818;28;20032;-72
2021/12/28 06:47:38;;;;;;;5.13;2.20;;;;;;;;;;5057755;28;20017;-71
2021/12/28 06:50:04;;;;;;;5.07;2.22;;;;;;;;;;5057955;28;20036;-72
2021/12/28 06:52:29;;;;;;;6.63;2.38;;;;;;;;;;5058018;28;20025;-72
2021/12/28 06:54:55;;;;;;;9.88;3.22;;;;;;;;;;5058147;28;20017;-72
2021/12/28 06:57:21;;;;;;;7.80;2.83;;;;;;;;;;5040412;28;20186;-72
2021/12/28 06:59:46;;;;;;;4.57;2.60;;;;;;;;;;5057296;28;20010;-72
2021/12/28 07:02:14;;;;;;;7.63;2.92;;;;;;;;;;5057592;28;20033;-72
2021/12/28 07:04:41;;;;;;;7.97;2.83;;;;;;;;;;5057563;28;20049;-72
2021/12/28 07:07:07;;;;;;;5.85;2.17;;;;;;;;;;5057199;28;20043;-72
2021/12/28 07:09:33;;;;;;;9.40;3.33;;;;;;;;;;5056860;28;20054;-71
2021/12/28 07:11:59;;;;;;;5.75;2.17;;;;;;;;;;5057291;28;20009;-73
2021/12/28 07:14:25;;;;;;;6.60;2.63;;;;;;;;;;5039842;28;20005;-71
2021/12/28 07:16:50;;;;;;;7.30;2.53;;;;;;;;;;5057114;28;20019;-71
2021/12/28 07:19:16;;;;;;;7.97;2.70;;;;;;;;;;5039335;28;20033;-71
2021/12/28 07:21:44;;;;;;;9.18;2.67;;;;;;;;;;5057241;28;20013;-72
2021/12/28 07:24:10;;;;;;;10.38;3.47;;;;;;;;;;5057039;28;20044;-72
2021/12/28 07:26:36;;;;;;;7.28;3.00;;;;;;;;;;5057179;28;20029;-72
2021/12/28 07:29:03;;;;;;;5.97;2.40;;;;;;;;;;5056475;28;20017;-72
2021/12/28 07:31:28;;;;;;;6.05;2.92;;;;;;;;;;5057243;28;20053;-72
2021/12/28 07:33:54;;;;;;;9.52;3.10;;;;;;;;;;5057111;28;20026;-72
2021/12/28 07:36:19;;;;;;;5.57;2.28;;;;;;;;;;5039954;28;20040;-72
2021/12/28 07:38:45;;;;;;;6.55;2.78;;;;;;;;;;5057089;28;20013;-72
2021/12/28 07:41:10;;;;;;;6.05;2.25;;;;;;;;;;5039652;28;20009;-72
2021/12/28 07:43:37;;;;;;;9.43;2.27;;;;;;;;;;5056138;28;20040;-72
2021/12/28 07:46:03;;;;;;;7.07;2.58;;;;;;;;;;5057355;28;20016;-72
2021/12/28 07:48:29;;;;;;;8.00;2.72;;;;;;;;;;5057592;28;20073;-72
2021/12/28 07:50:54;;;;;;;5.63;2.78;;;;;;;;;;5057565;28;20167;-72
2021/12/28 07:53:19;;;;;;;7.35;2.72;;;;;;;;;;5040477;28;20025;-72
2021/12/28 07:55:45;;;;;;;8.35;2.85;;;;;;;;;;5057301;28;20013;-72
2021/12/28 07:58:10;;;;;;;6.53;1.70;;;;;;;;;;5056862;28;20025;-72
2021/12/28 08:00:36;;;;;;;8.00;3.10;;;;;;;;;;5056928;28;20040;-72
2021/12/28 08:03:04;;;;;;;6.82;2.55;;;;;;;;;;5039941;28;20097;-72
2021/12/28 08:05:31;;;;;;;8.00;2.45;;;;;;;;;;5057305;28;20045;-72
2021/12/28 08:07:56;;;;;;;8.05;2.80;;;;;;;;;;5039669;28;20028;-72
2021/12/28 08:10:22;;;;;;;8.32;3.25;;;;;;;;;;5056794;28;20009;-73
2021/12/28 08:12:49;;;;;;;9.18;3.22;;;;;;;;;;5056326;28;20029;-72
2021/12/28 08:15:15;;;;;;;7.68;3.30;;;;;;;;;;5056870;28;20010;-72
2021/12/28 08:17:41;;;;;;;7.45;2.88;;;;;;;;;;5039946;28;20014;-72
2021/12/28 08:20:09;;;;;;;9.57;3.53;;;;;;;;;;5057204;28;20028;-72
2021/12/28 08:22:36;;;;;;;7.05;3.00;;;;;;;;;;5056823;28;20018;-72
2021/12/28 08:25:02;;;;;;;8.52;2.70;;;;;;;;;;5056736;28;20100;-72
2021/12/28 08:27:27;;;;;;;8.98;3.08;;;;;;;;;;5056774;28;20013;-73
2021/12/28 08:29:53;;;;;;;7.03;3.15;;;;;;;;;;5058167;28;20065;-73
2021/12/28 08:32:18;;;;;;;7.38;3.13;;;;;;;;;;5043023;28;20033;-72
2021/12/28 08:34:44;;;;;;;9.00;2.75;;;;;;;;;;5042940;28;20036;-72
2021/12/28 08:37:11;;;;;;;3.95;1.88;;;;;;;;;;5060112;28;20025;-73
2021/12/28 08:39:37;;;;;;;10.70;3.38;;;;;;;;;;5042640;28;20006;-72
2021/12/28 08:42:03;;;;;;;9.15;2.78;;;;;;;;;;5059978;28;20024;-72
2021/12/28 08:44:29;;;;;;;12.02;3.00;;;;;;;;;;5060368;28;20021;-72
2021/12/28 08:46:55;;;;;;;9.07;3.03;;;;;;;;;;5059931;28;20025;-72
2021/12/28 08:49:21;;;;;;;9.38;2.75;;;;;;;;;;5060262;28;20061;-72
2021/12/28 08:51:46;;;;;;;9.43;3.08;;;;;;;;;;5059912;28;20025;-72
2021/12/28 08:54:12;;;;;;;5.43;2.35;;;;;;;;;;5059887;28;20016;-72
2021/12/28 08:56:37;;;;;;;7.32;2.70;;;;;;;;;;5059820;28;20040;-72
2021/12/28 08:59:03;;;;;;;8.68;2.50;;;;;;;;;;5059532;28;20025;-72
2021/12/28 09:01:28;;;;;;;10.27;3.13;;;;;;;;;;5042428;28;20001;-72
2021/12/28 09:03:54;;;;;;;10.43;3.42;;;;;;;;;;5059863;28;20021;-72
2021/12/28 09:06:20;;;;;;;9.27;2.20;;;;;;;;;;5059992;28;20021;-72
2021/12/28 09:08:46;;;;;;;7.22;2.72;;;;;;;;;;5042727;28;20013;-72
2021/12/28 09:11:11;;;;;;;6.90;2.75;;;;;;;;;;5059572;28;20005;-72
2021/12/28 09:13:37;;;;;;;6.20;3.13;;;;;;;;;;5059523;28;20013;-72
2021/12/28 09:16:04;;;;;;;6.95;3.33;;;;;;;;;;5059360;28;20040;-72
2021/12/28 09:18:29;;;;;;;4.85;2.47;;;;;;;;;;5059539;28;20021;-72
2021/12/28 09:20:56;;;;;;;7.82;3.28;;;;;;;;;;5059325;28;20006;-72
2021/12/28 09:23:22;;;;;;;6.47;2.40;;;;;;;;;;5059093;28;20032;-72
2021/12/28 09:25:47;;;;;;;9.40;2.78;;;;;;;;;;5059221;28;20013;-71
2021/12/28 09:28:14;;;;;;;9.65;2.80;;;;;;;;;;5059513;28;20010;-72
2021/12/28 09:30:41;;;;;;;8.20;2.83;;;;;;;;;;5058745;28;20006;-72
2021/12/28 09:33:07;;;;;;;8.07;3.22;;;;;;;;;;5058709;28;20034;-72
2021/12/28 09:35:33;;;;;;;6.53;2.17;;;;;;;;;;5059275;28;20060;-70
2021/12/28 09:37:58;;;;;;;6.70;3.15;;;;;;;;;;5059116;28;20052;-72
2021/12/28 09:40:24;;;;;;;8.25;3.03;;;;;;;;;;5040094;28;20009;-72
2021/12/28 09:42:49;;;;;;;7.20;3.13;;;;;;;;;;5040362;28;20030;-72
2021/12/28 09:45:15;;;;;;;7.43;2.53;;;;;;;;;;5057893;28;20065;-72
2021/12/28 09:47:42;;;;;;;7.40;3.08;;;;;;;;;;5040302;28;20021;-72
2021/12/28 09:50:11;;;;;;;11.02;3.58;;;;;;;;;;5057721;28;20017;-72
2021/12/28 09:52:38;;;;;;;10.00;3.08;;;;;;;;;;5040337;28;20052;-72
2021/12/28 09:55:04;;;;;;;9.25;3.47;;;;;;;;;;5058759;28;20010;-72
2021/12/28 09:57:29;;;;;;;8.20;3.00;;;;;;;;;;5058926;28;20028;-71
2021/12/28 09:59:55;;;;;;;8.55;3.75;;;;;;;;;;5059088;28;20005;-72
2021/12/28 10:02:20;;;;;;;6.95;2.72;;;;;;;;;;5058751;28;20055;-72
2021/12/28 10:05:04;;;;;;;9.50;3.35;;;;;;;;;;5058904;28;20021;-72
2021/12/28 10:07:36;;;;;;;10.02;3.38;;;;;;;;;;5041458;28;20025;-71
2021/12/28 10:10:06;;;;;;;10.15;3.45;;;;;;;;;;5041216;28;20014;-72
2021/12/28 10:12:38;;;;;;;7.75;3.17;;;;;;;;;;5041596;28;20041;-72
2021/12/28 10:15:14;;;;;;;10.75;2.88;;;;;;;;;;5058934;28;20018;-72
2021/12/28 10:17:42;;;;;;;5.22;2.95;;;;;;;;;;5058747;28;20017;-72
2021/12/28 10:20:19;;;;;;;7.50;4.25;;;;;;;;;;5041166;28;20009;-72
2021/12/28 10:22:48;;;;;;;6.80;3.03;;;;;;;;;;5058088;28;20032;-72
2021/12/28 10:25:19;;;;;;;8.77;3.10;;;;;;;;;;5058236;28;20013;-73
2021/12/28 10:27:47;;;;;;;10.48;4.15;;;;;;;;;;5040846;28;20017;-73
2021/12/28 10:30:23;;;;;;;7.15;3.58;;;;;;;;;;5040542;28;20014;-71
2021/12/28 10:32:51;;;;;;;9.63;3.35;;;;;;;;;;5040543;28;20020;-72
2021/12/28 10:35:21;;;;;;;9.45;3.60;;;;;;;;;;5057996;28;20013;-73
2021/12/28 10:37:50;;;;;;;12.98;4.10;;;;;;;;;;5040747;28;20025;-72
2021/12/28 10:40:25;;;;;;;7.10;3.08;;;;;;;;;;5057808;28;20013;-72
2021/12/28 10:43:01;;;;;;;8.88;3.38;;;;;;;;;;5057850;28;20055;-72
2021/12/28 10:45:36;;;;;;;8.13;3.42;;;;;;;;;;5040584;28;20013;-72
2021/12/28 10:48:08;;;;;;;8.15;2.90;;;;;;;;;;5057958;28;20116;-73
2021/12/28 10:50:43;;;;;;;7.95;3.47;;;;;;;;;;5057696;28;20017;-72
2021/12/28 10:53:19;;;;;;;6.07;2.95;;;;;;;;;;5057673;28;20081;-72
2021/12/28 10:55:48;;;;;;;7.22;3.30;;;;;;;;;;5057750;28;20020;-72
2021/12/28 10:58:25;;;;;;;10.38;3.83;;;;;;;;;;5057567;28;20025;-72
2021/12/28 11:00:52;;;;;;;7.07;2.65;;;;;;;;;;5057652;28;20014;-72
2021/12/28 11:03:26;;;;;;;6.85;3.10;;;;;;;;;;5040544;28;20024;-72
2021/12/28 11:05:53;;;;;;;5.55;2.85;;;;;;;;;;5057609;28;20021;-72
2021/12/28 11:08:19;;;;;;;10.45;3.53;;;;;;;;;;5057573;28;20044;-72
2021/12/28 11:10:48;;;;;;;8.55;3.63;;;;;;;;;;5040361;28;20009;-72
2021/12/28 11:13:14;;;;;;;8.65;3.67;;;;;;;;;;5057506;28;20073;-72
2021/12/28 11:15:44;;;;;;;9.20;3.65;;;;;;;;;;5057480;28;20082;-72
2021/12/28 11:18:33;;;;;;;8.23;3.38;;;;;;;;;;5057523;28;20112;-72
2021/12/28 11:21:08;;;;;;;7.50;3.78;;;;;;;;;;5057562;28;20020;-72
2021/12/28 11:23:33;;;;;;;8.82;3.17;;;;;;;;;;5057388;28;20037;-72
2021/12/28 11:26:09;;;;;;;9.68;3.85;;;;;;;;;;5040035;28;20032;-72
2021/12/28 11:28:35;;;;;;;8.30;3.78;;;;;;;;;;5057421;28;20228;-72
2021/12/28 11:31:13;;;;;;;9.07;3.65;;;;;;;;;;5040173;28;20036;-72
2021/12/28 11:33:53;;;;;;;11.27;4.00;;;;;;;;;;5057165;28;20030;-73
2021/12/28 11:36:22;;;;;;;9.38;4.00;;;;;;;;;;5057331;28;20023;-72
2021/12/28 11:38:48;;;;;;;10.77;4.38;;;;;;;;;;5040063;28;20085;-72
2021/12/28 11:41:15;;;;;;;8.95;3.97;;;;;;;;;;5040015;28;20001;-72
2021/12/28 11:43:41;;;;;;;11.02;4.82;;;;;;;;;;5057294;28;20025;-72
2021/12/28 11:46:08;;;;;;;10.82;4.03;;;;;;;;;;5039997;28;20029;-72
2021/12/28 11:48:35;;;;;;;7.10;3.67;;;;;;;;;;5057179;28;20013;-72
2021/12/28 11:51:00;;;;;;;11.27;4.38;;;;;;;;;;5040101;28;20350;-72
2021/12/28 11:53:27;;;;;;;10.90;5.47;;;;;;;;;;5057225;28;20214;-72
2021/12/28 11:55:56;;;;;;;12.82;4.10;;;;;;;;;;5057222;28;20013;-72
2021/12/28 11:58:51;;;;;;;9.43;4.20;;;;;;;;;;5057099;28;20082;-72
2021/12/28 12:01:42;;;;;;;11.25;4.88;;;;;;;;;;5039924;28;20040;-72
2021/12/28 12:04:34;;;;;;;11.80;4.35;;;;;;;;;;5033076;28;20034;-72
2021/12/28 12:07:12;;;;;;;9.07;4.68;;;;;;;;;;5040655;28;20025;-72
2021/12/28 12:09:50;;;;;;;11.23;4.78;;;;;;;;;;5060886;28;20069;-73
2021/12/28 12:12:26;;;;;;;10.52;4.82;;;;;;;;;;5060805;28;20033;-72
2021/12/28 12:14:52;;;;;;;9.65;4.97;;;;;;;;;;5060606;28;20028;-72
2021/12/28 12:17:44;;;;;;;14.00;5.63;;;;;;;;;;5060666;28;20013;-72
2021/12/28 12:20:30;;;;;;;8.38;4.32;;;;;;;;;;5060506;28;20009;-72
2021/12/28 12:23:07;;;;;;;9.77;4.72;;;;;;;;;;5060651;28;20020;-72
2021/12/28 12:25:41;;;;;;;8.20;4.22;;;;;;;;;;5043258;28;20024;-72
2021/12/28 12:28:07;;;;;;;10.35;4.50;;;;;;;;;;5043108;28;20017;-72
2021/12/28 12:30:32;;;;;;;10.35;4.55;;;;;;;;;;5043237;28;20009;-72
2021/12/28 12:32:58;;;;;;;8.55;4.80;;;;;;;;;;5060154;28;20032;-72
2021/12/28 12:35:50;;;;;;;10.50;4.75;;;;;;;;;;5060398;28;20014;-72
2021/12/28 12:38:16;;;;;;;10.15;5.10;;;;;;;;;;5043195;28;20045;-72
2021/12/28 12:40:59;;;;;;;8.48;5.18;;;;;;;;;;5060238;28;20016;-73
2021/12/28 12:43:36;;;;;;;12.30;6.13;;;;;;;;;;5043101;28;20081;-72
2021/12/28 12:46:18;;;;;;;11.43;5.05;;;;;;;;;;5060052;28;20077;-72
2021/12/28 12:48:43;;;;;;;14.57;5.28;;;;;;;;;;5042897;28;20049;-72
2021/12/28 12:51:21;;;;;;;12.02;6.13;;;;;;;;;;5060088;28;20051;-72
2021/12/28 12:54:08;;;;;;;10.80;4.85;;;;;;;;;;5060075;28;20056;-73
2021/12/28 12:56:59;;;;;;;12.35;5.75;;;;;;;;;;5060004;28;20006;-72
2021/12/28 12:59:50;;;;;;;12.25;5.38;;;;;;;;;;5059915;28;20013;-72
2021/12/28 13:02:43;;;;;;;13.70;5.72;;;;;;;;;;5059696;28;20033;-72
2021/12/28 13:05:28;;;;;;;11.57;5.63;;;;;;;;;;5057356;28;20025;-72
2021/12/28 13:07:54;;;;;;;12.27;5.53;;;;;;;;;;5042476;28;20028;-72
2021/12/28 13:10:25;;;;;;;11.10;5.95;;;;;;;;;;5059699;28;20006;-72
2021/12/28 13:12:54;;;;;;;11.00;5.60;;;;;;;;;;5059659;28;20022;-72
2021/12/28 13:15:20;;;;;;;14.75;6.10;;;;;;;;;;5041874;28;20013;-72
2021/12/28 13:17:48;;;;;;;11.32;6.13;;;;;;;;;;5058760;28;20048;-72
2021/12/28 13:20:38;;;;;;;16.08;6.63;;;;;;;;;;5041505;28;20043;-72
2021/12/28 13:23:08;;;;;;;15.65;6.45;;;;;;;;;;5059266;28;20073;-72
2021/12/28 13:25:40;;;;;;;12.15;5.60;;;;;;;;;;5058911;28;20028;-72
2021/12/28 13:28:07;;;;;;;15.27;6.47;;;;;;;;;;5059164;28;20021;-72
2021/12/28 13:30:37;;;;;;;14.40;7.45;;;;;;;;;;5059175;28;20085;-72
2021/12/28 13:33:03;;;;;;;13.98;6.55;;;;;;;;;;5058964;28;20029;-71
2021/12/28 13:35:36;;;;;;;18.00;7.50;;;;;;;;;;5059189;28;20073;-72
2021/12/28 13:38:07;;;;;;;13.25;6.22;;;;;;;;;;5059196;28;20017;-71
2021/12/28 13:40:43;;;;;;;12.32;5.95;;;;;;;;;;5058918;28;20028;-72
2021/12/28 13:43:18;;;;;;;11.25;5.45;;;;;;;;;;5059019;28;20009;-72
2021/12/28 13:45:55;;;;;;;14.18;6.93;;;;;;;;;;5058967;28;20069;-73
2021/12/28 13:48:28;;;;;;;13.55;5.93;;;;;;;;;;5058829;28;20016;-72
2021/12/28 13:50:58;;;;;;;12.82;6.32;;;;;;;;;;5058664;28;20010;-72
2021/12/28 13:53:48;;;;;;;12.75;5.57;;;;;;;;;;5058584;28;20140;-72
2021/12/28 13:56:25;;;;;;;13.75;5.85;;;;;;;;;;5058534;28;20080;-72
2021/12/28 13:58:54;;;;;;;12.25;6.82;;;;;;;;;;5058755;28;20039;-73
2021/12/28 14:01:24;;;;;;;14.52;7.22;;;;;;;;;;5058609;28;20013;-72
2021/12/28 14:04:05;;;;;;;11.63;6.10;;;;;;;;;;5058375;28;20010;-71
2021/12/28 14:06:33;;;;;;;13.80;6.85;;;;;;;;;;5058672;28;20021;-72
2021/12/28 14:09:03;;;;;;;16.63;7.05;;;;;;;;;;5058409;28;20033;-71
2021/12/28 14:11:32;;;;;;;13.90;6.40;;;;;;;;;;5041276;28;20040;-72
2021/12/28 14:13:57;;;;;;;15.63;6.88;;;;;;;;;;5041199;28;20009;-73
2021/12/28 14:16:23;;;;;;;10.75;5.93;;;;;;;;;;5041379;28;20021;-72
2021/12/28 14:18:51;;;;;;;15.90;7.47;;;;;;;;;;5058315;28;20024;-71
2021/12/28 14:21:28;;;;;;;15.90;6.90;;;;;;;;;;5041085;28;20032;-72
2021/12/28 14:24:05;;;;;;;13.00;6.30;;;;;;;;;;5058052;28;20005;-72
2021/12/28 14:26:41;;;;;;;13.63;7.38;;;;;;;;;;5058014;28;20024;-72
2021/12/28 14:29:08;;;;;;;14.13;7.63;;;;;;;;;;5058096;28;20028;-72
2021/12/28 14:32:05;;;;;;;14.18;7.38;;;;;;;;;;5058127;28;20077;-72
2021/12/28 14:34:42;;;;;;;12.30;6.75;;;;;;;;;;5045026;28;20045;-72
2021/12/28 14:37:13;;;;;;;14.23;7.28;;;;;;;;;;5057979;28;20064;-72
2021/12/28 14:39:44;;;;;;;14.15;6.95;;;;;;;;;;5040691;28;20081;-72
2021/12/28 14:42:16;;;;;;;16.13;8.32;;;;;;;;;;5057643;28;20036;-72
2021/12/28 14:44:46;;;;;;;17.58;7.63;;;;;;;;;;5057536;28;20017;-72
2021/12/28 14:47:22;;;;;;;15.23;7.53;;;;;;;;;;5057763;28;20081;-72
2021/12/28 14:49:50;;;;;;;13.82;7.75;;;;;;;;;;5040280;28;20013;-71
2021/12/28 14:52:21;;;;;;;13.32;7.07;;;;;;;;;;5040318;28;20063;-71